Terminal Aerodrome Forecast
Issued by NWS

Current Version | Previous Version | Graphics & Text | Print | Product List | Glossary On
Versions: 1 2 3 4 5 6 7 8 9 10 11 12 13 14 15 16
000
FTUS41 KPBZ 172320
TAFMGW
TAF
KMGW 172320Z 1800/1824 16005KT P6SM BKN250
     FM180600 17004KT P6SM BKN100 WS020/22035KT
     FM181200 18007KT 6SM -RA OVC050 WS020/22045KT
     FM181500 19010G22KT 5SM -RA BR OVC020
     FM181900 19014G28KT P6SM BKN045=

USA.gov is the U.S. government's official web portal to all federal, state and local government web resources and services.